Terminal Aerodrome Forecast
Issued by NWS Tampa Bay Area, FL

Home | Current Version | Previous Version | Text Only | Print | Product List | Glossary On
Versions: 1 2 3 4 5 6 7 8 9 10 11 12 13 14 15 16 17 18 19 20 21 22 23 24 25 26 27
000
FTUS42 KTBW 181729
TAFTPA
TAF
KTPA 181729Z 1818/1924 24007KT P6SM FEW050 FEW250
     FM190200 21003KT P6SM SKC
     FM191500 23010KT P6SM VCSH SCT025 SCT060
     FM191800 27010G15KT P6SM VCSH BKN025 BKN060
     FM192100 33010KT P6SM SCT025 SCT060 BKN250=

USA.gov is the U.S. government's official web portal to all federal, state and local government web resources and services.